Terminal Aerodrome Forecast
Issued by NWS

Home | Current Version | Previous Version | Text Only | Print | Product List | Glossary Off
Versions: 1 2 3 4 5 6 7 8 9 10 11 12 13 14

655
FTUS43 KMPX 021125
TAFRWF
TAF
KRWF 021125Z 0212/0312 32008KT P6SM OVC022
     FM021900 31007KT P6SM OVC025
     FM030300 VRB03KT P6SM OVC020=

USA.gov is the U.S. government's official web portal to all federal, state and local government web resources and services.